sensor_id;sensor_type;location;lat;lon;timestamp;P1;durP1;ratioP1;P2;durP2;ratioP2
26951;SDS011;14507;52.418;13.398;2023-09-19T00:00:03;8.63;;;2.28;;
26951;SDS011;14507;52.418;13.398;2023-09-19T00:02:32;6.35;;;1.80;;
26951;SDS011;14507;52.418;13.398;2023-09-19T00:04:58;8.43;;;2.20;;
26951;SDS011;14507;52.418;13.398;2023-09-19T00:07:24;6.22;;;2.00;;
26951;SDS011;14507;52.418;13.398;2023-09-19T00:09:49;5.35;;;1.83;;
26951;SDS011;14507;52.418;13.398;2023-09-19T00:12:15;5.60;;;1.95;;
26951;SDS011;14507;52.418;13.398;2023-09-19T00:14:40;6.90;;;2.20;;
26951;SDS011;14507;52.418;13.398;2023-09-19T00:17:06;6.75;;;1.90;;
26951;SDS011;14507;52.418;13.398;2023-09-19T00:19:35;4.57;;;1.90;;
26951;SDS011;14507;52.418;13.398;2023-09-19T00:22:02;4.53;;;1.90;;
26951;SDS011;14507;52.418;13.398;2023-09-19T00:24:29;7.20;;;2.08;;
26951;SDS011;14507;52.418;13.398;2023-09-19T00:26:55;5.10;;;2.17;;
26951;SDS011;14507;52.418;13.398;2023-09-19T00:29:22;5.82;;;2.05;;
26951;SDS011;14507;52.418;13.398;2023-09-19T00:31:48;8.57;;;2.00;;
26951;SDS011;14507;52.418;13.398;2023-09-19T00:34:14;4.22;;;1.77;;
26951;SDS011;14507;52.418;13.398;2023-09-19T00:36:41;5.13;;;1.80;;
26951;SDS011;14507;52.418;13.398;2023-09-19T00:39:08;5.53;;;1.98;;
26951;SDS011;14507;52.418;13.398;2023-09-19T00:41:34;4.82;;;1.85;;
26951;SDS011;14507;52.418;13.398;2023-09-19T00:44:01;7.23;;;2.20;;
26951;SDS011;14507;52.418;13.398;2023-09-19T00:46:28;7.33;;;2.20;;
26951;SDS011;14507;52.418;13.398;2023-09-19T00:48:54;6.70;;;2.08;;
26951;SDS011;14507;52.418;13.398;2023-09-19T00:51:22;3.47;;;1.60;;
26951;SDS011;14507;52.418;13.398;2023-09-19T00:56:17;7.90;;;2.38;;
26951;SDS011;14507;52.418;13.398;2023-09-19T00:58:44;6.00;;;2.20;;
26951;SDS011;14507;52.418;13.398;2023-09-19T01:01:11;5.60;;;1.67;;
26951;SDS011;14507;52.418;13.398;2023-09-19T01:03:40;6.43;;;2.10;;
26951;SDS011;14507;52.418;13.398;2023-09-19T01:06:07;5.97;;;1.92;;
26951;SDS011;14507;52.418;13.398;2023-09-19T01:08:33;6.20;;;2.00;;
26951;SDS011;14507;52.418;13.398;2023-09-19T01:11:01;7.40;;;1.90;;
26951;SDS011;14507;52.418;13.398;2023-09-19T01:18:46;6.05;;;1.77;;
26951;SDS011;14507;52.418;13.398;2023-09-19T01:21:36;5.53;;;1.70;;
26951;SDS011;14507;52.418;13.398;2023-09-19T01:29:51;8.02;;;1.92;;
26951;SDS011;14507;52.418;13.398;2023-09-19T01:32:19;4.38;;;1.60;;
26951;SDS011;14507;52.418;13.398;2023-09-19T01:34:56;8.55;;;1.77;;
26951;SDS011;14507;52.418;13.398;2023-09-19T01:37:29;6.55;;;2.42;;
26951;SDS011;14507;52.418;13.398;2023-09-19T01:40:04;4.57;;;1.63;;
26951;SDS011;14507;52.418;13.398;2023-09-19T01:42:57;6.07;;;1.92;;
26951;SDS011;14507;52.418;13.398;2023-09-19T01:45:33;7.15;;;2.15;;
26951;SDS011;14507;52.418;13.398;2023-09-19T01:51:07;6.35;;;1.73;;
26951;SDS011;14507;52.418;13.398;2023-09-19T01:56:18;6.53;;;2.25;;
26951;SDS011;14507;52.418;13.398;2023-09-19T01:58:55;4.00;;;2.00;;
26951;SDS011;14507;52.418;13.398;2023-09-19T02:01:24;6.00;;;1.85;;
26951;SDS011;14507;52.418;13.398;2023-09-19T02:03:51;7.93;;;2.22;;
26951;SDS011;14507;52.418;13.398;2023-09-19T02:06:19;5.97;;;1.88;;
26951;SDS011;14507;52.418;13.398;2023-09-19T02:08:45;5.45;;;1.80;;
26951;SDS011;14507;52.418;13.398;2023-09-19T02:11:12;5.60;;;2.00;;
26951;SDS011;14507;52.418;13.398;2023-09-19T02:13:38;6.00;;;1.75;;
26951;SDS011;14507;52.418;13.398;2023-09-19T02:16:04;7.25;;;2.13;;
26951;SDS011;14507;52.418;13.398;2023-09-19T02:18:31;5.75;;;1.80;;
26951;SDS011;14507;52.418;13.398;2023-09-19T02:21:00;5.28;;;2.20;;
26951;SDS011;14507;52.418;13.398;2023-09-19T02:23:26;5.72;;;1.90;;
26951;SDS011;14507;52.418;13.398;2023-09-19T02:25:52;4.60;;;1.80;;
26951;SDS011;14507;52.418;13.398;2023-09-19T02:28:28;9.18;;;2.33;;
26951;SDS011;14507;52.418;13.398;2023-09-19T02:30:55;9.00;;;2.08;;
26951;SDS011;14507;52.418;13.398;2023-09-19T02:33:21;8.20;;;2.40;;
26951;SDS011;14507;52.418;13.398;2023-09-19T02:35:47;3.90;;;1.90;;
26951;SDS011;14507;52.418;13.398;2023-09-19T02:38:13;8.25;;;2.25;;
26951;SDS011;14507;52.418;13.398;2023-09-19T02:40:43;7.43;;;1.95;;
26951;SDS011;14507;52.418;13.398;2023-09-19T02:43:08;4.82;;;1.98;;
26951;SDS011;14507;52.418;13.398;2023-09-19T02:45:34;3.75;;;1.73;;
26951;SDS011;14507;52.418;13.398;2023-09-19T02:48:00;4.22;;;1.67;;
26951;SDS011;14507;52.418;13.398;2023-09-19T02:50:29;5.97;;;2.63;;
26951;SDS011;14507;52.418;13.398;2023-09-19T02:52:55;7.60;;;2.60;;
26951;SDS011;14507;52.418;13.398;2023-09-19T02:55:20;8.95;;;2.85;;
26951;SDS011;14507;52.418;13.398;2023-09-19T02:57:47;5.63;;;2.67;;
26951;SDS011;14507;52.418;13.398;2023-09-19T03:00:14;7.05;;;2.22;;
26951;SDS011;14507;52.418;13.398;2023-09-19T03:02:41;7.38;;;2.67;;
26951;SDS011;14507;52.418;13.398;2023-09-19T03:05:07;6.93;;;2.38;;
26951;SDS011;14507;52.418;13.398;2023-09-19T03:07:33;10.85;;;3.40;;
26951;SDS011;14507;52.418;13.398;2023-09-19T03:09:59;8.20;;;2.75;;
26951;SDS011;14507;52.418;13.398;2023-09-19T03:12:25;12.30;;;3.00;;
26951;SDS011;14507;52.418;13.398;2023-09-19T03:14:51;6.03;;;2.85;;
26951;SDS011;14507;52.418;13.398;2023-09-19T03:17:17;7.13;;;2.83;;
26951;SDS011;14507;52.418;13.398;2023-09-19T03:19:44;7.05;;;2.63;;
26951;SDS011;14507;52.418;13.398;2023-09-19T03:22:12;5.57;;;2.33;;
26951;SDS011;14507;52.418;13.398;2023-09-19T03:24:38;4.93;;;2.33;;
26951;SDS011;14507;52.418;13.398;2023-09-19T03:27:04;7.50;;;3.22;;
26951;SDS011;14507;52.418;13.398;2023-09-19T03:29:29;6.93;;;3.13;;
26951;SDS011;14507;52.418;13.398;2023-09-19T03:31:55;10.02;;;3.03;;
26951;SDS011;14507;52.418;13.398;2023-09-19T03:34:21;9.57;;;2.83;;
26951;SDS011;14507;52.418;13.398;2023-09-19T03:36:46;5.70;;;2.10;;
26951;SDS011;14507;52.418;13.398;2023-09-19T03:39:12;4.47;;;2.10;;
26951;SDS011;14507;52.418;13.398;2023-09-19T03:41:40;7.63;;;2.15;;
26951;SDS011;14507;52.418;13.398;2023-09-19T03:44:06;4.38;;;1.83;;
26951;SDS011;14507;52.418;13.398;2023-09-19T03:46:32;7.00;;;1.90;;
26951;SDS011;14507;52.418;13.398;2023-09-19T03:48:59;6.10;;;1.80;;
26951;SDS011;14507;52.418;13.398;2023-09-19T03:51:25;6.65;;;2.40;;
26951;SDS011;14507;52.418;13.398;2023-09-19T03:53:50;9.18;;;2.25;;
26951;SDS011;14507;52.418;13.398;2023-09-19T03:56:16;6.03;;;1.88;;
26951;SDS011;14507;52.418;13.398;2023-09-19T03:58:41;4.57;;;1.50;;
26951;SDS011;14507;52.418;13.398;2023-09-19T04:01:07;4.78;;;1.40;;
26951;SDS011;14507;52.418;13.398;2023-09-19T04:03:33;3.75;;;1.50;;
26951;SDS011;14507;52.418;13.398;2023-09-19T04:06:15;6.07;;;1.50;;
26951;SDS011;14507;52.418;13.398;2023-09-19T04:08:41;3.90;;;1.55;;
26951;SDS011;14507;52.418;13.398;2023-09-19T04:11:08;4.85;;;1.70;;
26951;SDS011;14507;52.418;13.398;2023-09-19T04:13:33;4.05;;;1.50;;
26951;SDS011;14507;52.418;13.398;2023-09-19T04:15:59;4.50;;;1.50;;
26951;SDS011;14507;52.418;13.398;2023-09-19T04:18:25;3.38;;;1.52;;
26951;SDS011;14507;52.418;13.398;2023-09-19T04:20:51;2.35;;;1.20;;
26951;SDS011;14507;52.418;13.398;2023-09-19T04:23:17;4.63;;;1.23;;
26951;SDS011;14507;52.418;13.398;2023-09-19T04:25:45;5.93;;;1.63;;
26951;SDS011;14507;52.418;13.398;2023-09-19T04:28:10;3.55;;;1.50;;
26951;SDS011;14507;52.418;13.398;2023-09-19T04:30:39;4.65;;;1.63;;
26951;SDS011;14507;52.418;13.398;2023-09-19T04:33:08;4.05;;;1.50;;
26951;SDS011;14507;52.418;13.398;2023-09-19T04:35:33;2.97;;;1.58;;
26951;SDS011;14507;52.418;13.398;2023-09-19T04:38:00;5.10;;;1.60;;
26951;SDS011;14507;52.418;13.398;2023-09-19T04:40:26;5.63;;;1.70;;
26951;SDS011;14507;52.418;13.398;2023-09-19T04:42:54;4.53;;;1.63;;
26951;SDS011;14507;52.418;13.398;2023-09-19T04:45:24;5.72;;;1.58;;
26951;SDS011;14507;52.418;13.398;2023-09-19T04:47:54;3.47;;;1.60;;
26951;SDS011;14507;52.418;13.398;2023-09-19T04:50:21;4.25;;;1.50;;
26951;SDS011;14507;52.418;13.398;2023-09-19T04:52:51;6.60;;;1.77;;
26951;SDS011;14507;52.418;13.398;2023-09-19T04:55:20;8.52;;;1.70;;
26951;SDS011;14507;52.418;13.398;2023-09-19T04:57:45;3.35;;;1.38;;
26951;SDS011;14507;52.418;13.398;2023-09-19T05:00:21;3.22;;;1.23;;
26951;SDS011;14507;52.418;13.398;2023-09-19T05:02:54;7.07;;;1.52;;
26951;SDS011;14507;52.418;13.398;2023-09-19T05:05:23;4.68;;;1.10;;
26951;SDS011;14507;52.418;13.398;2023-09-19T05:07:50;4.40;;;1.17;;
26951;SDS011;14507;52.418;13.398;2023-09-19T05:10:16;4.18;;;1.42;;
26951;SDS011;14507;52.418;13.398;2023-09-19T05:12:45;7.78;;;1.75;;
26951;SDS011;14507;52.418;13.398;2023-09-19T05:15:13;3.05;;;1.20;;
26951;SDS011;14507;52.418;13.398;2023-09-19T05:17:42;2.65;;;1.20;;
26951;SDS011;14507;52.418;13.398;2023-09-19T05:20:14;7.88;;;1.55;;
26951;SDS011;14507;52.418;13.398;2023-09-19T05:22:43;3.67;;;1.50;;
26951;SDS011;14507;52.418;13.398;2023-09-19T05:25:11;3.90;;;1.17;;
26951;SDS011;14507;52.418;13.398;2023-09-19T05:27:41;3.13;;;1.33;;
26951;SDS011;14507;52.418;13.398;2023-09-19T05:30:07;4.80;;;1.67;;
26951;SDS011;14507;52.418;13.398;2023-09-19T05:32:33;7.28;;;1.67;;
26951;SDS011;14507;52.418;13.398;2023-09-19T05:34:59;3.47;;;1.77;;
26951;SDS011;14507;52.418;13.398;2023-09-19T05:37:24;6.00;;;1.83;;
26951;SDS011;14507;52.418;13.398;2023-09-19T05:39:51;8.10;;;1.52;;
26951;SDS011;14507;52.418;13.398;2023-09-19T05:42:18;8.00;;;1.80;;
26951;SDS011;14507;52.418;13.398;2023-09-19T05:44:44;5.15;;;1.65;;
26951;SDS011;14507;52.418;13.398;2023-09-19T05:47:09;7.78;;;1.80;;
26951;SDS011;14507;52.418;13.398;2023-09-19T05:49:35;3.65;;;1.30;;
26951;SDS011;14507;52.418;13.398;2023-09-19T05:52:07;6.22;;;1.92;;
26951;SDS011;14507;52.418;13.398;2023-09-19T05:54:32;4.85;;;1.63;;
26951;SDS011;14507;52.418;13.398;2023-09-19T05:56:59;7.15;;;1.60;;
26951;SDS011;14507;52.418;13.398;2023-09-19T05:59:26;9.88;;;1.77;;
26951;SDS011;14507;52.418;13.398;2023-09-19T06:01:52;7.15;;;1.63;;
26951;SDS011;14507;52.418;13.398;2023-09-19T06:04:18;4.40;;;1.70;;
26951;SDS011;14507;52.418;13.398;2023-09-19T06:06:46;7.18;;;1.65;;
26951;SDS011;14507;52.418;13.398;2023-09-19T06:09:13;5.53;;;1.65;;
26951;SDS011;14507;52.418;13.398;2023-09-19T06:11:41;6.03;;;1.60;;
26951;SDS011;14507;52.418;13.398;2023-09-19T06:14:07;6.05;;;1.65;;
26951;SDS011;14507;52.418;13.398;2023-09-19T06:16:32;5.57;;;1.80;;
26951;SDS011;14507;52.418;13.398;2023-09-19T06:18:58;7.85;;;1.90;;
26951;SDS011;14507;52.418;13.398;2023-09-19T06:21:25;8.38;;;1.55;;
26951;SDS011;14507;52.418;13.398;2023-09-19T06:23:52;11.75;;;2.00;;
26951;SDS011;14507;52.418;13.398;2023-09-19T06:26:20;7.88;;;1.80;;
26951;SDS011;14507;52.418;13.398;2023-09-19T06:28:46;9.05;;;1.63;;
26951;SDS011;14507;52.418;13.398;2023-09-19T06:31:12;8.27;;;1.50;;
26951;SDS011;14507;52.418;13.398;2023-09-19T06:33:37;11.55;;;1.67;;
26951;SDS011;14507;52.418;13.398;2023-09-19T06:36:04;7.28;;;1.38;;
26951;SDS011;14507;52.418;13.398;2023-09-19T06:38:30;5.95;;;1.33;;
26951;SDS011;14507;52.418;13.398;2023-09-19T06:40:58;7.57;;;1.95;;
26951;SDS011;14507;52.418;13.398;2023-09-19T06:43:24;9.32;;;2.50;;
26951;SDS011;14507;52.418;13.398;2023-09-19T06:45:49;8.77;;;2.05;;
26951;SDS011;14507;52.418;13.398;2023-09-19T06:48:16;5.10;;;1.30;;
26951;SDS011;14507;52.418;13.398;2023-09-19T06:50:43;7.40;;;1.58;;
26951;SDS011;14507;52.418;13.398;2023-09-19T06:53:09;9.20;;;1.63;;
26951;SDS011;14507;52.418;13.398;2023-09-19T06:55:35;4.57;;;1.42;;
26951;SDS011;14507;52.418;13.398;2023-09-19T06:58:01;6.03;;;1.45;;
26951;SDS011;14507;52.418;13.398;2023-09-19T07:00:27;4.55;;;1.52;;
26951;SDS011;14507;52.418;13.398;2023-09-19T07:03:06;7.00;;;2.08;;
26951;SDS011;14507;52.418;13.398;2023-09-19T07:05:39;11.55;;;1.65;;
26951;SDS011;14507;52.418;13.398;2023-09-19T07:08:06;8.65;;;1.60;;
26951;SDS011;14507;52.418;13.398;2023-09-19T07:10:33;7.25;;;1.77;;
26951;SDS011;14507;52.418;13.398;2023-09-19T07:12:59;4.88;;;1.60;;
26951;SDS011;14507;52.418;13.398;2023-09-19T07:15:31;4.72;;;1.50;;
26951;SDS011;14507;52.418;13.398;2023-09-19T07:18:04;5.72;;;1.35;;
26951;SDS011;14507;52.418;13.398;2023-09-19T07:20:31;8.55;;;1.73;;
26951;SDS011;14507;52.418;13.398;2023-09-19T07:22:58;7.65;;;1.50;;
26951;SDS011;14507;52.418;13.398;2023-09-19T07:25:29;4.32;;;1.40;;
26951;SDS011;14507;52.418;13.398;2023-09-19T07:27:56;3.20;;;1.30;;
26951;SDS011;14507;52.418;13.398;2023-09-19T07:30:25;4.80;;;1.50;;
26951;SDS011;14507;52.418;13.398;2023-09-19T07:32:52;7.35;;;2.15;;
26951;SDS011;14507;52.418;13.398;2023-09-19T07:35:18;6.43;;;2.03;;
26951;SDS011;14507;52.418;13.398;2023-09-19T07:37:47;8.25;;;1.85;;
26951;SDS011;14507;52.418;13.398;2023-09-19T07:40:14;10.63;;;1.70;;
26951;SDS011;14507;52.418;13.398;2023-09-19T07:42:40;8.93;;;1.92;;
26951;SDS011;14507;52.418;13.398;2023-09-19T07:45:09;4.63;;;1.80;;
26951;SDS011;14507;52.418;13.398;2023-09-19T07:47:39;5.32;;;1.77;;
26951;SDS011;14507;52.418;13.398;2023-09-19T07:50:15;10.85;;;1.80;;
26951;SDS011;14507;52.418;13.398;2023-09-19T07:52:43;4.32;;;1.83;;
26951;SDS011;14507;52.418;13.398;2023-09-19T07:55:09;4.80;;;1.80;;
26951;SDS011;14507;52.418;13.398;2023-09-19T07:57:41;5.35;;;1.83;;
26951;SDS011;14507;52.418;13.398;2023-09-19T08:00:08;9.38;;;1.80;;
26951;SDS011;14507;52.418;13.398;2023-09-19T08:02:38;7.85;;;2.10;;
26951;SDS011;14507;52.418;13.398;2023-09-19T08:05:07;9.98;;;1.95;;
26951;SDS011;14507;52.418;13.398;2023-09-19T08:07:35;7.65;;;1.88;;
26951;SDS011;14507;52.418;13.398;2023-09-19T08:10:02;8.93;;;2.03;;
26951;SDS011;14507;52.418;13.398;2023-09-19T08:12:29;6.90;;;2.20;;
26951;SDS011;14507;52.418;13.398;2023-09-19T08:14:55;4.70;;;1.77;;
26951;SDS011;14507;52.418;13.398;2023-09-19T08:17:21;8.02;;;1.77;;
26951;SDS011;14507;52.418;13.398;2023-09-19T08:19:48;5.93;;;1.90;;
26951;SDS011;14507;52.418;13.398;2023-09-19T08:22:17;6.35;;;1.98;;
26951;SDS011;14507;52.418;13.398;2023-09-19T08:24:44;5.88;;;1.85;;
26951;SDS011;14507;52.418;13.398;2023-09-19T08:27:11;6.88;;;1.80;;
26951;SDS011;14507;52.418;13.398;2023-09-19T08:29:37;8.48;;;1.75;;
26951;SDS011;14507;52.418;13.398;2023-09-19T08:32:03;6.47;;;2.03;;
26951;SDS011;14507;52.418;13.398;2023-09-19T08:34:29;8.93;;;2.08;;
26951;SDS011;14507;52.418;13.398;2023-09-19T08:36:57;9.50;;;2.13;;
26951;SDS011;14507;52.418;13.398;2023-09-19T08:39:23;5.40;;;1.80;;
26951;SDS011;14507;52.418;13.398;2023-09-19T08:41:56;8.45;;;1.70;;
26951;SDS011;14507;52.418;13.398;2023-09-19T08:44:24;7.68;;;2.00;;
26951;SDS011;14507;52.418;13.398;2023-09-19T08:46:49;9.43;;;1.85;;
26951;SDS011;14507;52.418;13.398;2023-09-19T08:49:24;7.00;;;1.92;;
26951;SDS011;14507;52.418;13.398;2023-09-19T08:52:01;8.52;;;1.75;;
26951;SDS011;14507;52.418;13.398;2023-09-19T08:54:38;6.40;;;2.40;;
26951;SDS011;14507;52.418;13.398;2023-09-19T08:57:06;5.20;;;1.95;;
26951;SDS011;14507;52.418;13.398;2023-09-19T08:59:39;7.38;;;2.10;;
26951;SDS011;14507;52.418;13.398;2023-09-19T09:02:15;7.38;;;2.22;;
26951;SDS011;14507;52.418;13.398;2023-09-19T09:04:43;7.43;;;2.22;;
26951;SDS011;14507;52.418;13.398;2023-09-19T09:07:11;8.82;;;1.80;;
26951;SDS011;14507;52.418;13.398;2023-09-19T09:09:41;5.95;;;1.90;;
26951;SDS011;14507;52.418;13.398;2023-09-19T09:12:12;8.68;;;2.22;;
26951;SDS011;14507;52.418;13.398;2023-09-19T09:14:47;5.97;;;2.28;;
26951;SDS011;14507;52.418;13.398;2023-09-19T09:17:14;7.93;;;2.35;;
26951;SDS011;14507;52.418;13.398;2023-09-19T09:19:45;11.48;;;2.20;;
26951;SDS011;14507;52.418;13.398;2023-09-19T09:22:12;9.37;;;2.23;;
26951;SDS011;14507;52.418;13.398;2023-09-19T09:24:50;8.68;;;2.42;;
26951;SDS011;14507;52.418;13.398;2023-09-19T09:27:19;9.00;;;1.90;;
26951;SDS011;14507;52.418;13.398;2023-09-19T09:29:48;7.53;;;2.00;;
26951;SDS011;14507;52.418;13.398;2023-09-19T09:32:30;6.63;;;2.30;;
26951;SDS011;14507;52.418;13.398;2023-09-19T09:35:00;7.57;;;2.33;;
26951;SDS011;14507;52.418;13.398;2023-09-19T09:37:29;9.50;;;2.60;;
26951;SDS011;14507;52.418;13.398;2023-09-19T09:45:19;10.13;;;2.55;;
26951;SDS011;14507;52.418;13.398;2023-09-19T09:47:57;5.82;;;1.92;;
26951;SDS011;14507;52.418;13.398;2023-09-19T09:53:28;9.20;;;2.50;;
26951;SDS011;14507;52.418;13.398;2023-09-19T09:58:26;8.18;;;2.25;;
26951;SDS011;14507;52.418;13.398;2023-09-19T10:00:57;17.67;;;2.58;;
26951;SDS011;14507;52.418;13.398;2023-09-19T10:03:37;14.27;;;2.40;;
26951;SDS011;14507;52.418;13.398;2023-09-19T10:06:12;8.25;;;2.30;;
26951;SDS011;14507;52.418;13.398;2023-09-19T10:09:01;8.50;;;2.17;;
26951;SDS011;14507;52.418;13.398;2023-09-19T10:12:05;7.50;;;2.05;;
26951;SDS011;14507;52.418;13.398;2023-09-19T10:14:33;8.52;;;2.33;;
26951;SDS011;14507;52.418;13.398;2023-09-19T10:17:04;9.55;;;1.95;;
26951;SDS011;14507;52.418;13.398;2023-09-19T10:19:36;6.68;;;2.10;;
26951;SDS011;14507;52.418;13.398;2023-09-19T10:22:11;8.45;;;2.45;;
26951;SDS011;14507;52.418;13.398;2023-09-19T10:24:38;7.38;;;2.20;;
26951;SDS011;14507;52.418;13.398;2023-09-19T10:27:06;10.95;;;2.40;;
26951;SDS011;14507;52.418;13.398;2023-09-19T10:29:33;8.57;;;2.17;;
26951;SDS011;14507;52.418;13.398;2023-09-19T10:32:01;14.43;;;2.80;;
26951;SDS011;14507;52.418;13.398;2023-09-19T10:34:31;6.45;;;2.53;;
26951;SDS011;14507;52.418;13.398;2023-09-19T10:37:00;9.32;;;2.20;;
26951;SDS011;14507;52.418;13.398;2023-09-19T10:39:30;8.55;;;2.67;;
26951;SDS011;14507;52.418;13.398;2023-09-19T10:41:57;8.50;;;2.42;;
26951;SDS011;14507;52.418;13.398;2023-09-19T10:44:31;5.90;;;2.22;;
26951;SDS011;14507;52.418;13.398;2023-09-19T10:46:58;12.38;;;2.72;;
26951;SDS011;14507;52.418;13.398;2023-09-19T10:49:24;10.00;;;2.35;;
26951;SDS011;14507;52.418;13.398;2023-09-19T10:51:52;12.30;;;2.47;;
26951;SDS011;14507;52.418;13.398;2023-09-19T10:54:25;13.65;;;2.33;;
26951;SDS011;14507;52.418;13.398;2023-09-19T10:56:53;8.15;;;2.65;;
26951;SDS011;14507;52.418;13.398;2023-09-19T10:59:23;13.18;;;2.40;;
26951;SDS011;14507;52.418;13.398;2023-09-19T11:04:29;6.22;;;2.58;;
26951;SDS011;14507;52.418;13.398;2023-09-19T11:12:12;12.95;;;2.70;;
26951;SDS011;14507;52.418;13.398;2023-09-19T11:15:11;11.35;;;2.80;;
26951;SDS011;14507;52.418;13.398;2023-09-19T11:24:40;6.28;;;2.20;;
26951;SDS011;14507;52.418;13.398;2023-09-19T11:27:14;11.38;;;2.22;;
26951;SDS011;14507;52.418;13.398;2023-09-19T11:29:42;9.02;;;2.22;;
26951;SDS011;14507;52.418;13.398;2023-09-19T11:32:08;13.10;;;2.80;;
26951;SDS011;14507;52.418;13.398;2023-09-19T11:34:41;11.05;;;2.17;;
26951;SDS011;14507;52.418;13.398;2023-09-19T11:39:39;8.80;;;2.35;;
26951;SDS011;14507;52.418;13.398;2023-09-19T11:45:52;7.70;;;2.33;;
26951;SDS011;14507;52.418;13.398;2023-09-19T11:48:20;7.47;;;2.10;;
26951;SDS011;14507;52.418;13.398;2023-09-19T11:53:18;10.70;;;2.30;;
26951;SDS011;14507;52.418;13.398;2023-09-19T11:55:45;7.95;;;1.70;;
26951;SDS011;14507;52.418;13.398;2023-09-19T11:58:11;7.70;;;1.95;;
26951;SDS011;14507;52.418;13.398;2023-09-19T12:00:39;5.15;;;1.70;;
26951;SDS011;14507;52.418;13.398;2023-09-19T12:03:09;10.48;;;2.17;;
26951;SDS011;14507;52.418;13.398;2023-09-19T12:05:36;6.07;;;1.75;;
26951;SDS011;14507;52.418;13.398;2023-09-19T12:08:02;6.78;;;1.83;;
26951;SDS011;14507;52.418;13.398;2023-09-19T12:10:32;6.45;;;1.85;;
26951;SDS011;14507;52.418;13.398;2023-09-19T12:12:58;5.05;;;1.80;;
26951;SDS011;14507;52.418;13.398;2023-09-19T12:15:25;11.00;;;2.55;;
26951;SDS011;14507;52.418;13.398;2023-09-19T12:17:53;13.43;;;2.08;;
26951;SDS011;14507;52.418;13.398;2023-09-19T12:20:19;11.52;;;2.42;;
26951;SDS011;14507;52.418;13.398;2023-09-19T12:22:46;10.90;;;2.10;;
26951;SDS011;14507;52.418;13.398;2023-09-19T12:25:12;11.35;;;2.15;;
26951;SDS011;14507;52.418;13.398;2023-09-19T12:27:42;7.70;;;1.80;;
26951;SDS011;14507;52.418;13.398;2023-09-19T12:30:22;8.25;;;2.03;;
26951;SDS011;14507;52.418;13.398;2023-09-19T12:32:53;9.60;;;1.90;;
26951;SDS011;14507;52.418;13.398;2023-09-19T12:35:28;11.32;;;1.88;;
26951;SDS011;14507;52.418;13.398;2023-09-19T12:37:55;12.93;;;2.15;;
26951;SDS011;14507;52.418;13.398;2023-09-19T12:40:22;6.18;;;1.83;;
26951;SDS011;14507;52.418;13.398;2023-09-19T12:42:53;5.78;;;1.65;;
26951;SDS011;14507;52.418;13.398;2023-09-19T12:45:32;14.13;;;2.15;;
26951;SDS011;14507;52.418;13.398;2023-09-19T12:51:07;6.25;;;1.77;;
26951;SDS011;14507;52.418;13.398;2023-09-19T12:53:36;4.38;;;1.55;;
26951;SDS011;14507;52.418;13.398;2023-09-19T12:56:09;6.65;;;1.92;;
26951;SDS011;14507;52.418;13.398;2023-09-19T13:01:24;4.53;;;1.48;;
26951;SDS011;14507;52.418;13.398;2023-09-19T13:04:10;7.20;;;1.98;;
26951;SDS011;14507;52.418;13.398;2023-09-19T13:06:37;5.78;;;1.60;;
26951;SDS011;14507;52.418;13.398;2023-09-19T13:09:08;8.73;;;1.52;;
26951;SDS011;14507;52.418;13.398;2023-09-19T13:11:38;11.23;;;1.67;;
26951;SDS011;14507;52.418;13.398;2023-09-19T13:22:41;7.85;;;1.63;;
26951;SDS011;14507;52.418;13.398;2023-09-19T13:25:23;3.20;;;1.23;;
26951;SDS011;14507;52.418;13.398;2023-09-19T13:30:21;4.20;;;1.65;;
26951;SDS011;14507;52.418;13.398;2023-09-19T13:32:48;5.90;;;1.40;;
26951;SDS011;14507;52.418;13.398;2023-09-19T13:35:14;6.95;;;1.80;;
26951;SDS011;14507;52.418;13.398;2023-09-19T13:37:40;6.43;;;1.50;;
26951;SDS011;14507;52.418;13.398;2023-09-19T13:42:34;3.50;;;1.40;;
26951;SDS011;14507;52.418;13.398;2023-09-19T13:45:01;7.35;;;1.83;;
26951;SDS011;14507;52.418;13.398;2023-09-19T13:47:28;3.53;;;1.60;;
26951;SDS011;14507;52.418;13.398;2023-09-19T13:49:54;4.85;;;1.50;;
26951;SDS011;14507;52.418;13.398;2023-09-19T13:52:20;5.38;;;1.55;;
26951;SDS011;14507;52.418;13.398;2023-09-19T13:54:46;6.53;;;1.70;;
26951;SDS011;14507;52.418;13.398;2023-09-19T13:57:12;6.13;;;1.75;;
26951;SDS011;14507;52.418;13.398;2023-09-19T13:59:39;8.95;;;1.67;;
26951;SDS011;14507;52.418;13.398;2023-09-19T14:02:05;9.18;;;1.83;;
26951;SDS011;14507;52.418;13.398;2023-09-19T14:04:30;7.30;;;1.98;;
26951;SDS011;14507;52.418;13.398;2023-09-19T14:06:56;8.20;;;1.70;;
26951;SDS011;14507;52.418;13.398;2023-09-19T14:09:23;6.90;;;1.80;;
26951;SDS011;14507;52.418;13.398;2023-09-19T14:11:49;6.88;;;1.55;;
26951;SDS011;14507;52.418;13.398;2023-09-19T14:16:43;10.48;;;2.20;;
26951;SDS011;14507;52.418;13.398;2023-09-19T14:19:09;4.03;;;1.77;;
26951;SDS011;14507;52.418;13.398;2023-09-19T14:21:35;8.60;;;2.00;;
26951;SDS011;14507;52.418;13.398;2023-09-19T14:24:01;5.75;;;1.38;;
26951;SDS011;14507;52.418;13.398;2023-09-19T14:26:27;8.10;;;1.70;;
26951;SDS011;14507;52.418;13.398;2023-09-19T14:28:54;10.65;;;1.70;;
26951;SDS011;14507;52.418;13.398;2023-09-19T14:31:20;5.75;;;1.52;;
26951;SDS011;14507;52.418;13.398;2023-09-19T14:33:45;8.98;;;2.28;;
26951;SDS011;14507;52.418;13.398;2023-09-19T14:36:18;6.38;;;1.65;;
26951;SDS011;14507;52.418;13.398;2023-09-19T14:38:44;6.88;;;2.03;;
26951;SDS011;14507;52.418;13.398;2023-09-19T14:41:09;8.75;;;1.92;;
26951;SDS011;14507;52.418;13.398;2023-09-19T14:43:35;9.13;;;2.13;;
26951;SDS011;14507;52.418;13.398;2023-09-19T14:46:04;16.30;;;2.17;;
26951;SDS011;14507;52.418;13.398;2023-09-19T14:48:32;6.55;;;1.98;;
26951;SDS011;14507;52.418;13.398;2023-09-19T14:51:02;7.22;;;1.83;;
26951;SDS011;14507;52.418;13.398;2023-09-19T14:53:29;9.50;;;1.90;;
26951;SDS011;14507;52.418;13.398;2023-09-19T14:55:55;5.63;;;1.80;;
26951;SDS011;14507;52.418;13.398;2023-09-19T14:58:21;6.47;;;1.88;;
26951;SDS011;14507;52.418;13.398;2023-09-19T15:00:46;4.30;;;1.45;;
26951;SDS011;14507;52.418;13.398;2023-09-19T15:03:12;6.85;;;1.90;;
26951;SDS011;14507;52.418;13.398;2023-09-19T15:05:41;5.15;;;1.63;;
26951;SDS011;14507;52.418;13.398;2023-09-19T15:08:06;4.03;;;1.70;;
26951;SDS011;14507;52.418;13.398;2023-09-19T15:10:32;6.05;;;1.95;;
26951;SDS011;14507;52.418;13.398;2023-09-19T15:12:57;5.05;;;1.85;;
26951;SDS011;14507;52.418;13.398;2023-09-19T15:15:23;6.93;;;2.03;;
26951;SDS011;14507;52.418;13.398;2023-09-19T15:17:49;6.80;;;2.33;;
26951;SDS011;14507;52.418;13.398;2023-09-19T15:20:14;4.70;;;2.08;;
26951;SDS011;14507;52.418;13.398;2023-09-19T15:22:40;7.18;;;2.72;;
26951;SDS011;14507;52.418;13.398;2023-09-19T15:25:06;7.38;;;1.75;;
26951;SDS011;14507;52.418;13.398;2023-09-19T15:27:32;9.88;;;1.98;;
26951;SDS011;14507;52.418;13.398;2023-09-19T15:30:01;8.45;;;2.10;;
26951;SDS011;14507;52.418;13.398;2023-09-19T15:32:27;11.48;;;2.17;;
26951;SDS011;14507;52.418;13.398;2023-09-19T15:34:53;6.78;;;2.30;;
26951;SDS011;14507;52.418;13.398;2023-09-19T15:37:19;6.07;;;2.20;;
26951;SDS011;14507;52.418;13.398;2023-09-19T15:39:45;6.72;;;2.13;;
26951;SDS011;14507;52.418;13.398;2023-09-19T15:42:11;5.43;;;1.77;;
26951;SDS011;14507;52.418;13.398;2023-09-19T15:44:37;7.72;;;2.10;;
26951;SDS011;14507;52.418;13.398;2023-09-19T15:47:03;8.77;;;1.98;;
26951;SDS011;14507;52.418;13.398;2023-09-19T15:49:29;11.98;;;2.28;;
26951;SDS011;14507;52.418;13.398;2023-09-19T15:51:55;12.77;;;2.45;;
26951;SDS011;14507;52.418;13.398;2023-09-19T15:54:21;8.20;;;1.88;;